Time;durP1;ratioP1;P1;durP2;ratioP2;P2;SDS_P1;SDS_P2;PMS_P1;PMS_P2;Temp;Humidity;BMP_temperature;BMP_pressure;BME280_temperature;BME280_humidity;BME280_pressure;Samples;Min_cycle;Max_cycle;Signal;HPM_P1;HPM_P2
2021/05/13 00:00:42;;;;;;;13.48;11.73;;;;;;;18.37;67.73;98974.16;4936879;28;101229;-83
2021/05/13 00:03:08;;;;;;;12.52;11.23;;;;;;;18.37;67.76;98987.44;4935954;28;96662;-83
2021/05/13 00:05:33;;;;;;;13.25;11.57;;;;;;;18.43;67.27;98985.06;4937461;28;96969;-83
2021/05/13 00:07:59;;;;;;;13.20;10.27;;;;;;;18.44;67.29;98984.13;4952331;28;101557;-83
2021/05/13 00:10:26;;;;;;;12.02;10.82;;;;;;;18.42;67.65;98987.88;4938868;28;101580;-83
2021/05/13 00:12:57;;;;;;;12.02;10.75;;;;;;;18.42;67.63;98991.38;4955467;28;96692;-83
2021/05/13 00:15:26;;;;;;;11.43;10.23;;;;;;;18.34;67.38;98991.19;4956296;28;96923;-83
2021/05/13 00:17:52;;;;;;;12.52;11.13;;;;;;;18.29;67.90;98980.94;4939292;28;100907;-83
2021/05/13 00:20:22;;;;;;;12.00;10.77;;;;;;;18.38;67.72;98989.09;4956988;28;97924;-83
2021/05/13 00:22:48;;;;;;;14.07;11.23;;;;;;;18.37;67.72;98993.56;4955730;28;96691;-82
2021/05/13 00:25:14;;;;;;;11.80;10.60;;;;;;;18.43;67.42;98990.38;4956059;28;96914;-83
2021/05/13 00:27:40;;;;;;;14.40;12.90;;;;;;;18.41;67.33;98987.00;4939503;28;101387;-83
2021/05/13 00:30:07;;;;;;;13.85;12.23;;;;;;;18.41;67.12;98989.66;4955496;28;101470;-83
2021/05/13 00:32:36;;;;;;;14.40;12.35;;;;;;;18.35;67.54;98984.06;4949628;28;96904;-82
2021/05/13 00:35:02;;;;;;;15.55;13.85;;;;;;;18.38;67.49;98994.41;4954787;28;96972;-83
2021/05/13 00:37:27;;;;;;;14.50;13.00;;;;;;;18.37;67.79;98993.56;4939244;28;101960;-83
2021/05/13 00:39:53;;;;;;;13.57;12.20;;;;;;;18.41;67.66;98992.31;4955008;28;98321;-83
2021/05/13 00:42:19;;;;;;;14.18;12.73;;;;;;;18.40;67.50;98984.50;4956266;28;96535;-83
2021/05/13 00:44:45;;;;;;;13.98;12.50;;;;;;;18.38;67.62;98987.28;4940507;28;96682;-83
2021/05/13 00:47:12;;;;;;;14.45;12.82;;;;;;;18.31;67.77;98984.31;4955600;28;101927;-83
2021/05/13 00:49:41;;;;;;;12.82;11.35;;;;;;;18.26;68.09;98983.88;4956605;28;98025;-83
2021/05/13 00:52:09;;;;;;;14.20;12.70;;;;;;;18.25;67.75;98989.34;4936870;28;97597;-83
2021/05/13 00:54:37;;;;;;;13.63;12.05;;;;;;;18.23;67.85;98994.78;4938808;28;96795;-83
2021/05/13 00:57:02;;;;;;;13.40;12.00;;;;;;;18.23;67.89;98999.25;4937196;28;101619;-83
2021/05/13 00:59:29;;;;;;;13.30;11.77;;;;;;;18.28;67.86;99005.00;4939535;28;99714;-83
2021/05/13 01:01:55;;;;;;;13.57;11.73;;;;;;;18.29;67.67;99004.03;4938985;28;96749;-82
2021/05/13 01:04:21;;;;;;;14.48;12.65;;;;;;;18.32;67.35;99011.72;4955797;28;96514;-84
2021/05/13 01:06:47;;;;;;;14.40;13.00;;;;;;;18.32;67.62;99011.72;4939402;28;101434;-83
2021/05/13 01:09:20;;;;;;;15.38;13.73;;;;;;;18.18;67.83;99004.09;4938016;28;101139;-83
2021/05/13 01:11:49;;;;;;;18.10;13.50;;;;;;;18.18;68.14;98998.78;4959667;28;97131;-83
2021/05/13 01:17:01;;;;;;;19.23;13.63;;;;;;;18.11;68.03;98995.84;4975520;28;97590;-83
2021/05/13 01:19:27;;;;;;;14.63;13.13;;;;;;;18.15;67.77;98986.66;4943332;28;101722;-83
2021/05/13 01:21:53;;;;;;;17.80;13.80;;;;;;;18.16;67.87;98974.22;4975331;28;96750;-83
2021/05/13 01:24:19;;;;;;;16.25;14.55;;;;;;;18.16;68.18;98964.41;4956728;28;96848;-84
2021/05/13 01:26:46;;;;;;;16.58;14.85;;;;;;;18.13;68.31;98947.91;4941580;28;101295;-84
2021/05/13 01:29:13;;;;;;;20.20;15.75;;;;;;;18.11;68.32;98953.34;4972975;28;98429;-84
2021/05/13 01:31:38;;;;;;;17.75;14.60;;;;;;;18.14;67.98;98942.47;4958828;28;96625;-84
2021/05/13 01:34:06;;;;;;;16.33;14.63;;;;;;;18.09;68.18;98926.09;4958396;28;96592;-84
2021/05/13 01:36:32;;;;;;;17.65;15.18;;;;;;;18.12;68.37;98925.81;4942546;28;100966;-84
2021/05/13 01:38:58;;;;;;;17.02;15.38;;;;;;;18.08;67.96;98911.97;4958223;28;98134;-83
2021/05/13 01:41:24;;;;;;;17.77;15.27;;;;;;;18.05;68.26;98914.06;4967203;28;97258;-83
2021/05/13 01:43:50;;;;;;;17.52;15.73;;;;;;;17.99;68.21;98903.97;4974197;28;96959;-83
2021/05/13 01:46:15;;;;;;;17.15;15.43;;;;;;;17.99;68.21;98912.78;4973824;28;97956;-84
2021/05/13 01:48:42;;;;;;;17.17;15.13;;;;;;;17.94;68.28;98911.50;4958634;28;97435;-84
2021/05/13 01:51:08;;;;;;;17.00;15.20;;;;;;;17.88;68.66;98908.38;4958184;28;97159;-84
2021/05/13 01:53:33;;;;;;;16.92;15.23;;;;;;;17.82;68.92;98913.41;4958515;28;96840;-84
2021/05/13 01:55:59;;;;;;;17.13;15.43;;;;;;;17.80;68.62;98916.19;4952209;28;97952;-83
2021/05/13 01:58:25;;;;;;;22.00;14.73;;;;;;;17.81;69.00;98906.41;4955046;28;97987;-84
2021/05/13 02:00:51;;;;;;;16.20;14.50;;;;;;;17.81;68.45;98896.63;4954619;28;97073;-84
2021/05/13 02:03:17;;;;;;;17.63;14.48;;;;;;;17.85;68.49;98890.06;4921681;28;97356;-84
2021/05/13 02:05:43;;;;;;;17.30;15.50;;;;;;;17.85;68.44;98891.91;4922404;28;101194;-84
2021/05/13 02:08:09;;;;;;;15.82;14.00;;;;;;;17.84;68.36;98885.75;4937934;28;98806;-84
2021/05/13 02:10:35;;;;;;;15.88;13.90;;;;;;;17.83;68.56;98891.19;4938944;28;96589;-84
2021/05/13 02:13:01;;;;;;;15.25;13.70;;;;;;;17.83;68.76;98885.88;4955816;28;96963;-83
2021/05/13 02:15:27;;;;;;;17.10;14.95;;;;;;;17.82;68.55;98893.00;4973278;28;100997;-83
2021/05/13 02:17:53;;;;;;;18.60;14.75;;;;;;;17.81;68.72;98887.84;4958002;28;97980;-83
2021/05/13 02:20:21;;;;;;;18.65;15.55;;;;;;;17.84;68.35;98874.31;4956666;28;96587;-84
2021/05/13 02:22:47;;;;;;;18.55;15.52;;;;;;;17.83;68.41;98860.19;4941159;28;96880;-84
2021/05/13 02:25:13;;;;;;;17.95;16.05;;;;;;;17.79;68.83;98840.19;4957428;28;101774;-84
2021/05/13 02:27:39;;;;;;;19.60;16.25;;;;;;;17.81;68.62;98830.28;4956586;28;100918;-84
2021/05/13 02:30:06;;;;;;;21.63;17.13;;;;;;;17.79;68.61;98832.22;4939781;28;97056;-84
2021/05/13 02:32:32;;;;;;;22.50;16.63;;;;;;;17.82;68.07;98818.69;4973776;28;96935;-84
2021/05/13 02:34:57;;;;;;;21.20;16.55;;;;;;;17.76;68.37;98821.84;4974285;28;98515;-82
2021/05/13 02:37:23;;;;;;;18.90;16.63;;;;;;;17.77;68.37;98828.00;4957589;28;101159;-84
2021/05/13 02:39:48;;;;;;;19.55;17.45;;;;;;;17.75;68.77;98825.47;4941583;28;96952;-84
2021/05/13 02:42:15;;;;;;;18.45;16.45;;;;;;;17.71;68.48;98834.66;4955032;28;96851;-84
2021/05/13 02:44:40;;;;;;;22.05;17.42;;;;;;;17.70;68.40;98843.63;4952030;28;100767;-84
2021/05/13 02:47:06;;;;;;;21.40;17.77;;;;;;;17.65;68.36;98849.31;4989059;28;101748;-84
2021/05/13 02:49:32;;;;;;;22.08;17.67;;;;;;;17.65;68.37;98856.44;4974155;28;96711;-84
2021/05/13 02:51:58;;;;;;;23.77;17.75;;;;;;;17.64;68.33;98868.03;4973960;28;96944;-82
2021/05/13 02:54:23;;;;;;;20.98;17.05;;;;;;;17.70;68.49;98874.63;4973055;28;102041;-84
2021/05/13 02:56:49;;;;;;;22.35;19.15;;;;;;;17.64;68.36;98876.00;4990715;28;98389;-84
2021/05/13 02:59:18;;;;;;;20.45;18.23;;;;;;;17.64;68.40;98871.53;4965015;28;96941;-83
2021/05/13 03:01:44;;;;;;;22.95;18.88;;;;;;;17.66;68.35;98874.06;4957639;28;96985;-84
2021/05/13 03:04:09;;;;;;;21.92;19.40;;;;;;;17.65;68.57;98875.00;4939791;28;100544;-84
2021/05/13 03:06:37;;;;;;;23.35;18.13;;;;;;;17.75;68.47;98883.03;4957180;28;101679;-84
2021/05/13 03:09:04;;;;;;;21.15;17.73;;;;;;;17.63;68.83;98880.47;4973531;28;96764;-84
2021/05/13 03:11:30;;;;;;;20.98;17.98;;;;;;;17.67;68.66;98890.81;4941155;28;96906;-84
2021/05/13 03:13:58;;;;;;;21.33;19.13;;;;;;;17.72;68.27;98885.94;4941108;28;101525;-84
2021/05/13 03:16:23;;;;;;;23.38;18.92;;;;;;;17.71;68.29;98890.41;4957066;28;100027;-84
2021/05/13 03:18:54;;;;;;;21.48;19.08;;;;;;;17.69;68.61;98897.66;4955907;28;96840;-83
2021/05/13 03:21:34;;;;;;;22.52;18.42;;;;;;;17.64;68.79;98891.91;4972680;28;97296;-83
2021/05/13 03:24:08;;;;;;;25.20;18.73;;;;;;;17.73;68.18;98893.75;4941070;28;101743;-82
2021/05/13 03:29:00;;;;;;;20.23;17.88;;;;;;;17.77;68.41;98899.66;4973464;28;97044;-81
2021/05/13 03:31:25;;;;;;;21.33;17.15;;;;;;;17.76;68.31;98900.63;4956692;28;96884;-84
2021/05/13 03:33:51;;;;;;;22.02;18.45;;;;;;;17.68;68.48;98905.75;4972543;28;98309;-84
2021/05/13 03:36:16;;;;;;;22.08;18.92;;;;;;;17.60;68.74;98899.28;4989846;28;97895;-84
2021/05/13 03:38:42;;;;;;;21.98;17.98;;;;;;;17.63;68.19;98901.69;4957471;28;96733;-84
2021/05/13 03:41:07;;;;;;;24.45;18.48;;;;;;;17.62;67.99;98904.47;4954568;28;96840;-83
2021/05/13 03:43:33;;;;;;;24.27;17.73;;;;;;;17.66;68.20;98900.59;4955972;28;98445;-84
2021/05/13 03:45:58;;;;;;;24.45;17.90;;;;;;;17.70;67.94;98895.84;4956116;28;101528;-84
2021/05/13 03:48:24;;;;;;;25.70;18.80;;;;;;;17.65;68.46;98890.94;4956351;28;96884;-83
2021/05/13 03:50:49;;;;;;;23.50;18.83;;;;;;;17.73;68.36;98887.63;4940755;28;96646;-84
2021/05/13 03:53:15;;;;;;;21.80;17.13;;;;;;;17.70;68.54;98888.72;4956063;28;101330;-84
2021/05/13 03:55:41;;;;;;;21.77;17.63;;;;;;;17.77;68.35;98881.94;4973553;28;98352;-84
2021/05/13 03:58:09;;;;;;;24.20;18.25;;;;;;;17.75;68.36;98875.06;4939743;28;96621;-83
2021/05/13 04:00:43;;;;;;;21.10;18.27;;;;;;;17.73;68.77;98872.53;4971667;28;96841;-84
2021/05/13 04:03:09;;;;;;;23.52;18.65;;;;;;;17.73;68.56;98871.69;4937158;28;101690;-84
2021/05/13 04:05:36;;;;;;;22.98;17.77;;;;;;;17.75;68.66;98878.56;4955361;28;101193;-84
2021/05/13 04:08:03;;;;;;;27.52;18.35;;;;;;;17.73;68.78;98869.88;4972894;28;97227;-84
2021/05/13 04:10:29;;;;;;;24.88;18.67;;;;;;;17.79;68.75;98865.88;4972590;28;96931;-84
2021/05/13 04:12:56;;;;;;;25.85;18.85;;;;;;;17.79;68.59;98863.25;4973060;28;98404;-83
2021/05/13 04:15:22;;;;;;;20.58;18.40;;;;;;;17.80;68.42;98868.44;4988476;28;101436;-84
2021/05/13 04:17:47;;;;;;;23.45;18.73;;;;;;;17.78;68.42;98861.56;4972940;28;96707;-84
2021/05/13 04:20:13;;;;;;;23.35;18.48;;;;;;;17.78;68.48;98854.44;4988622;28;96849;-84
2021/05/13 04:22:38;;;;;;;29.42;18.42;;;;;;;17.82;68.21;98853.19;4954627;28;98562;-84
2021/05/13 04:25:05;;;;;;;22.42;18.05;;;;;;;17.81;67.91;98845.38;4955780;28;98572;-84
2021/05/13 04:27:30;;;;;;;23.10;19.05;;;;;;;17.81;68.22;98856.81;4954557;28;97284;-83
2021/05/13 04:29:56;;;;;;;26.63;19.00;;;;;;;17.85;68.26;98852.09;4940178;28;96917;-84
2021/05/13 04:32:21;;;;;;;21.95;18.65;;;;;;;17.85;68.31;98857.38;4938639;28;101298;-84
2021/05/13 04:34:47;;;;;;;18.95;16.92;;;;;;;17.86;68.17;98848.47;4972827;28;98174;-84
2021/05/13 04:37:12;;;;;;;23.27;17.92;;;;;;;17.92;67.69;98847.94;4956135;28;96630;-84
2021/05/13 04:39:38;;;;;;;21.05;18.02;;;;;;;17.98;67.88;98842.09;4972900;28;96839;-84
2021/05/13 04:42:04;;;;;;;25.02;19.35;;;;;;;17.95;68.23;98834.38;4940068;28;101437;-83
2021/05/13 04:44:32;;;;;;;27.23;18.25;;;;;;;18.01;67.83;98831.19;4970599;28;98394;-83
2021/05/13 04:46:59;;;;;;;27.85;19.77;;;;;;;18.03;68.05;98823.06;4956026;28;96965;-84
2021/05/13 04:49:25;;;;;;;28.77;18.88;;;;;;;18.04;68.31;98815.00;4940548;28;97139;-83
2021/05/13 04:51:51;;;;;;;24.90;17.15;;;;;;;18.07;67.91;98808.56;4943161;28;101360;-84
2021/05/13 04:54:17;;;;;;;26.05;18.70;;;;;;;18.06;67.67;98812.19;4942371;28;99798;-84
2021/05/13 04:56:44;;;;;;;24.55;17.45;;;;;;;18.09;67.13;98801.28;4942738;28;96877;-84
2021/05/13 04:59:12;;;;;;;21.35;17.00;;;;;;;18.09;67.30;98798.63;4942900;28;97244;-82
2021/05/13 05:01:38;;;;;;;20.33;16.77;;;;;;;18.07;66.83;98801.44;4976035;28;97499;-84
2021/05/13 05:04:03;;;;;;;20.63;16.45;;;;;;;18.07;66.93;98801.44;4949534;28;98051;-83
2021/05/13 05:06:29;;;;;;;21.75;17.45;;;;;;;18.06;67.17;98797.13;4938515;28;97030;-83
2021/05/13 05:08:55;;;;;;;20.85;16.95;;;;;;;18.07;66.80;98803.25;4938472;28;96789;-84
2021/05/13 05:11:22;;;;;;;21.88;17.52;;;;;;;18.08;67.18;98800.44;4939268;28;98186;-83
2021/05/13 05:13:47;;;;;;;28.05;17.52;;;;;;;18.06;67.20;98797.13;4939885;28;100479;-84
2021/05/13 05:16:13;;;;;;;23.10;17.10;;;;;;;18.02;66.78;98794.84;4938712;28;96613;-83
2021/05/13 05:18:39;;;;;;;28.15;18.60;;;;;;;18.04;66.92;98795.56;4956254;28;96783;-84
2021/05/13 05:21:04;;;;;;;20.55;16.98;;;;;;;18.03;66.87;98791.22;4938972;28;101330;-84
2021/05/13 05:23:30;;;;;;;26.58;17.65;;;;;;;17.99;66.97;98797.78;4938161;28;101083;-84
2021/05/13 05:25:57;;;;;;;22.33;17.45;;;;;;;18.02;67.21;98797.50;4970244;28;96660;-83
2021/05/13 05:28:26;;;;;;;22.27;17.60;;;;;;;18.00;66.97;98800.28;4957230;28;96815;-83
2021/05/13 05:30:52;;;;;;;23.38;18.23;;;;;;;18.04;67.03;98790.25;4958240;28;100414;-84
2021/05/13 05:33:18;;;;;;;31.92;17.65;;;;;;;18.04;67.24;98792.91;4941790;28;101067;-84
2021/05/13 05:35:44;;;;;;;25.90;17.80;;;;;;;18.15;66.68;98787.50;4959012;28;96589;-85
2021/05/13 05:38:09;;;;;;;24.75;17.48;;;;;;;18.12;67.11;98790.38;4959667;28;97166;-84
2021/05/13 05:40:35;;;;;;;27.02;16.88;;;;;;;18.02;67.35;98786.91;4941094;28;101532;-83
2021/05/13 05:43:01;;;;;;;22.65;16.50;;;;;;;18.04;67.02;98788.44;4958850;28;98391;-84
2021/05/13 05:45:27;;;;;;;25.23;16.08;;;;;;;18.10;66.86;98781.75;4967964;28;97074;-84
2021/05/13 05:47:59;;;;;;;20.85;16.38;;;;;;;18.09;66.75;98782.69;4937887;28;97466;-83
2021/05/13 05:50:26;;;;;;;22.98;17.52;;;;;;;18.06;67.03;98788.28;4969993;28;98149;-84
2021/05/13 05:52:54;;;;;;;25.15;17.45;;;;;;;18.07;66.79;98788.16;4955437;28;100939;-84
2021/05/13 05:55:20;;;;;;;19.60;16.98;;;;;;;18.03;66.88;98789.41;4970605;28;96535;-83
2021/05/13 05:57:46;;;;;;;22.23;16.90;;;;;;;18.04;67.31;98790.25;4971179;28;97254;-84
2021/05/13 06:00:12;;;;;;;25.77;16.67;;;;;;;18.07;66.97;98795.28;4971776;28;97532;-83
2021/05/13 06:02:38;;;;;;;28.10;17.45;;;;;;;18.03;67.09;98784.09;4955051;28;97844;-84
2021/05/13 06:05:04;;;;;;;27.48;17.90;;;;;;;18.08;67.18;98781.88;4955013;28;96922;-84
2021/05/13 06:07:29;;;;;;;27.50;18.17;;;;;;;18.10;66.85;98779.09;4954509;28;97084;-84
2021/05/13 06:09:57;;;;;;;29.27;18.17;;;;;;;18.09;66.82;98780.03;4954396;28;101527;-84
2021/05/13 06:12:23;;;;;;;23.88;16.92;;;;;;;18.07;67.17;98779.38;4953737;28;101011;-84
2021/05/13 06:14:50;;;;;;;27.25;18.05;;;;;;;18.10;67.09;98787.06;4971486;28;96648;-84
2021/05/13 06:17:16;;;;;;;28.90;18.20;;;;;;;18.02;67.45;98778.94;4954621;28;96849;-84
2021/05/13 06:19:41;;;;;;;27.75;17.33;;;;;;;18.06;67.06;98775.88;4938489;28;102014;-84
2021/05/13 06:22:07;;;;;;;23.17;16.50;;;;;;;18.05;66.83;98776.00;4971198;28;98402;-84
2021/05/13 06:24:32;;;;;;;27.48;18.10;;;;;;;18.02;67.09;98770.97;4969749;28;96747;-84
2021/05/13 06:27:00;;;;;;;28.65;17.10;;;;;;;17.98;67.29;98780.19;4955650;28;96875;-84
2021/05/13 06:29:28;;;;;;;30.67;18.83;;;;;;;17.95;67.50;98783.94;4953492;28;101309;-83
2021/05/13 06:31:53;;;;;;;28.15;18.20;;;;;;;18.04;67.05;98774.34;4954390;28;101365;-83
2021/05/13 06:34:19;;;;;;;29.10;17.42;;;;;;;18.09;66.79;98774.72;4953601;28;97739;-83
2021/05/13 06:36:45;;;;;;;29.65;18.15;;;;;;;18.04;66.98;98769.03;4954475;28;96910;-83
2021/05/13 06:39:10;;;;;;;28.25;17.40;;;;;;;18.10;66.79;98763.16;4954401;28;101754;-83
2021/05/13 06:41:36;;;;;;;27.02;17.70;;;;;;;18.13;66.86;98775.31;4953468;28;100825;-83
2021/05/13 06:44:03;;;;;;;31.10;18.83;;;;;;;18.06;67.05;98767.91;4954445;28;97087;-83
2021/05/13 06:46:29;;;;;;;28.75;18.20;;;;;;;18.10;67.15;98766.66;4970025;28;96786;-83
2021/05/13 06:48:55;;;;;;;28.17;19.50;;;;;;;18.12;67.18;98773.63;4954253;28;100268;-83
2021/05/13 06:51:20;;;;;;;23.00;17.02;;;;;;;18.08;67.02;98775.72;4954254;28;101380;-83
2021/05/13 06:53:46;;;;;;;29.75;17.92;;;;;;;18.00;66.94;98780.88;4954845;28;96742;-85
2021/05/13 06:56:12;;;;;;;23.80;14.55;;;;;;;18.08;66.73;98779.22;4955215;28;96920;-84
2021/05/13 06:58:38;;;;;;;21.98;16.40;;;;;;;18.01;66.85;98786.06;4953824;28;97983;-84
2021/05/13 07:01:04;;;;;;;25.02;16.17;;;;;;;17.95;66.73;98785.75;4956368;28;100763;-84
2021/05/13 07:03:30;;;;;;;22.17;15.23;;;;;;;17.94;66.81;98782.25;4944657;28;96660;-84
2021/05/13 07:05:56;;;;;;;24.58;17.10;;;;;;;17.94;66.83;98787.56;4939245;28;97132;-84
2021/05/13 07:08:21;;;;;;;23.48;15.57;;;;;;;17.90;66.87;98780.84;4940182;28;100616;-83
2021/05/13 07:10:47;;;;;;;25.25;15.75;;;;;;;17.91;67.23;98781.69;4943959;28;101777;-83
2021/05/13 07:13:12;;;;;;;30.15;16.23;;;;;;;17.95;66.93;98777.78;4971049;28;97174;-83
2021/05/13 07:15:38;;;;;;;27.17;17.10;;;;;;;17.94;66.97;98786.72;4943889;28;96851;-84
2021/05/13 07:18:04;;;;;;;28.65;17.05;;;;;;;17.97;66.94;98781.16;4919642;28;100186;-83
2021/05/13 07:20:31;;;;;;;22.25;15.55;;;;;;;17.86;67.16;98782.13;4934268;28;101279;-84
2021/05/13 07:22:57;;;;;;;24.80;15.73;;;;;;;17.88;66.98;98774.84;4927389;28;97701;-84
2021/05/13 07:25:23;;;;;;;21.77;15.35;;;;;;;17.82;67.45;98770.06;4955469;28;97156;-84
2021/05/13 07:27:49;;;;;;;26.70;15.63;;;;;;;17.83;67.34;98775.25;4954892;28;101463;-86
2021/05/13 07:30:15;;;;;;;27.33;16.15;;;;;;;17.81;67.52;98776.38;4958271;28;101010;-84
2021/05/13 07:32:41;;;;;;;21.67;16.58;;;;;;;17.80;67.87;98772.03;4933406;28;97148;-84
2021/05/13 07:35:08;;;;;;;26.38;16.63;;;;;;;17.78;67.62;98776.66;4961074;28;97228;-84
2021/05/13 07:37:34;;;;;;;22.75;14.18;;;;;;;17.84;67.51;98787.53;4943798;28;101339;-83
2021/05/13 07:39:59;;;;;;;24.17;15.43;;;;;;;17.81;67.30;98779.84;4938710;28;101553;-84
2021/05/13 07:42:25;;;;;;;24.13;15.55;;;;;;;17.90;67.42;98782.69;4953584;28;96760;-83
2021/05/13 07:44:52;;;;;;;25.77;16.20;;;;;;;17.78;67.47;98779.31;4954353;28;96832;-84
2021/05/13 07:47:20;;;;;;;28.75;16.40;;;;;;;17.78;67.92;98781.94;4937830;28;100326;-84
2021/05/13 07:49:46;;;;;;;22.25;14.82;;;;;;;17.84;67.67;98776.09;4933998;28;99223;-84
2021/05/13 07:52:12;;;;;;;22.85;15.27;;;;;;;17.85;67.81;98783.91;4917986;28;96924;-84
2021/05/13 07:54:37;;;;;;;25.48;16.20;;;;;;;17.82;68.06;98786.00;4936452;28;98048;-83
2021/05/13 07:57:07;;;;;;;23.33;14.93;;;;;;;17.76;67.87;98779.38;4942886;28;98085;-84
2021/05/13 07:59:32;;;;;;;24.77;15.05;;;;;;;17.84;67.57;98784.06;4944006;28;97972;-84
2021/05/13 08:01:58;;;;;;;24.92;16.05;;;;;;;17.80;68.21;98793.25;4960863;28;97404;-84
2021/05/13 08:04:23;;;;;;;23.17;15.52;;;;;;;17.82;67.74;98784.19;4954123;28;96996;-83
2021/05/13 08:06:50;;;;;;;24.70;15.88;;;;;;;17.84;67.83;98778.75;4951554;28;101327;-84
2021/05/13 08:09:16;;;;;;;24.90;15.27;;;;;;;17.88;68.09;98777.50;4968273;28;100288;-86
2021/05/13 08:11:43;;;;;;;23.92;16.75;;;;;;;17.93;67.69;98782.41;4931397;28;97351;-83
2021/05/13 08:14:08;;;;;;;26.08;15.98;;;;;;;18.00;67.63;98781.72;4918924;28;96859;-86
2021/05/13 08:16:34;;;;;;;23.55;16.27;;;;;;;18.00;67.27;98776.41;4933736;28;101516;-82
2021/05/13 08:18:59;;;;;;;26.08;16.42;;;;;;;18.00;67.93;98771.09;4920174;28;101352;-83
2021/05/13 08:21:25;;;;;;;28.48;14.27;;;;;;;17.99;67.61;98758.81;4945425;28;97036;-83
2021/05/13 08:23:51;;;;;;;19.65;13.90;;;;;;;18.10;67.15;98769.31;4937309;28;97363;-85
2021/05/13 08:26:16;;;;;;;22.65;15.82;;;;;;;18.09;67.16;98767.63;4971569;28;97368;-84
2021/05/13 08:28:42;;;;;;;21.10;14.88;;;;;;;18.11;67.04;98770.13;4931136;28;100855;-84
2021/05/13 08:31:08;;;;;;;21.80;13.50;;;;;;;18.10;66.56;98771.97;4944049;28;97307;-83
2021/05/13 08:33:35;;;;;;;20.38;13.05;;;;;;;18.03;66.79;98770.81;4956902;28;97214;-82
2021/05/13 08:36:01;;;;;;;23.25;13.02;;;;;;;18.00;66.83;98778.22;4940381;28;98536;-83
2021/05/13 08:38:26;;;;;;;23.70;14.05;;;;;;;18.01;67.53;98782.56;4940847;28;100469;-86
2021/05/13 08:40:52;;;;;;;21.58;14.38;;;;;;;17.96;67.51;98780.31;4942760;28;97061;-83
2021/05/13 08:43:22;;;;;;;23.20;13.90;;;;;;;18.09;67.20;98777.38;4937670;28;97402;-83
2021/05/13 08:45:50;;;;;;;19.03;12.77;;;;;;;18.06;67.15;98773.22;4941367;28;100199;-83
2021/05/13 08:48:17;;;;;;;27.30;12.43;;;;;;;18.10;66.62;98777.28;4938773;28;98070;-84
2021/05/13 08:50:43;;;;;;;17.90;12.63;;;;;;;18.14;66.46;98779.66;4967138;28;97019;-83
2021/05/13 08:53:08;;;;;;;20.27;11.93;;;;;;;18.24;66.21;98780.50;4975763;28;96763;-82
2021/05/13 08:55:35;;;;;;;22.05;13.10;;;;;;;18.20;66.19;98779.09;4958483;28;100612;-83
2021/05/13 08:58:00;;;;;;;19.73;13.40;;;;;;;18.21;65.95;98780.75;4992416;28;98427;-83
2021/05/13 09:00:26;;;;;;;20.33;13.50;;;;;;;18.21;65.83;98780.75;4973279;28;97429;-83
2021/05/13 09:02:52;;;;;;;21.13;13.05;;;;;;;18.19;65.91;98785.38;4936004;28;97673;-86
2021/05/13 09:05:18;;;;;;;19.65;13.32;;;;;;;18.17;65.82;98780.19;4922056;28;101120;-83
2021/05/13 09:07:44;;;;;;;17.40;12.20;;;;;;;18.24;65.91;98785.81;4945681;28;98406;-79
2021/05/13 09:10:11;;;;;;;18.45;13.30;;;;;;;18.22;66.12;98785.94;4931306;28;99384;-82
2021/05/13 09:12:56;;;;;;;19.23;12.38;;;;;;;18.22;65.35;98793.09;4944647;28;97001;-81
2021/05/13 09:15:28;;;;;;;17.98;11.40;;;;;;;18.25;65.65;98785.66;4945430;28;98975;-81
2021/05/13 09:17:57;;;;;;;18.00;12.20;;;;;;;18.28;65.43;98789.88;4945740;28;99761;-81
2021/05/13 09:20:30;;;;;;;22.80;11.73;;;;;;;18.31;65.08;98794.91;4959602;28;97165;-82
2021/05/13 09:23:14;;;;;;;20.02;12.48;;;;;;;18.37;65.29;98789.03;4951156;28;97396;-83
2021/05/13 09:25:41;;;;;;;17.77;11.77;;;;;;;18.34;65.33;98789.31;4946597;28;99425;-83
2021/05/13 09:28:07;;;;;;;14.13;10.88;;;;;;;18.53;64.75;98785.84;4951136;28;98305;-82
2021/05/13 09:30:35;;;;;;;19.52;11.65;;;;;;;18.48;64.85;98791.56;4956047;28;97152;-83
2021/05/13 09:33:01;;;;;;;20.85;11.63;;;;;;;18.48;64.88;98785.41;4922561;28;97475;-81
2021/05/13 09:35:34;;;;;;;16.73;11.85;;;;;;;18.42;64.87;98784.16;4958626;28;97986;-81
2021/05/13 09:38:01;;;;;;;20.70;12.55;;;;;;;18.49;65.10;98787.09;4957395;28;101117;-82
2021/05/13 09:40:36;;;;;;;18.50;11.65;;;;;;;18.63;64.65;98786.66;4937883;28;97125;-83
2021/05/13 09:43:10;;;;;;;17.52;11.23;;;;;;;18.69;64.11;98782.59;4932050;28;97386;-82
2021/05/13 09:45:49;;;;;;;16.90;11.15;;;;;;;18.82;63.80;98782.34;4952316;28;97272;-83
2021/05/13 09:48:38;;;;;;;19.70;11.20;;;;;;;18.96;63.79;98787.22;4947787;28;102044;-83
2021/05/13 09:51:39;;;;;;;16.75;10.68;;;;;;;18.88;63.65;98790.59;4960996;28;97748;-82
2021/05/13 09:54:12;;;;;;;20.00;11.98;;;;;;;18.89;63.47;98789.63;4932503;28;97228;-82
2021/05/13 09:56:50;;;;;;;19.27;12.40;;;;;;;18.92;63.43;98785.84;4947184;28;101711;-82
2021/05/13 09:59:27;;;;;;;17.05;11.60;;;;;;;18.88;63.15;98779.09;4948671;28;101881;-83
2021/05/13 10:01:54;;;;;;;11.45;10.13;;;;;;;18.85;63.37;98785.56;4932476;28;96721;-84
2021/05/13 10:04:20;;;;;;;16.42;11.10;;;;;;;18.76;63.94;98779.28;4964350;28;97003;-87
2021/05/13 10:06:46;;;;;;;14.68;10.43;;;;;;;18.72;64.03;98777.84;4965806;28;98522;-86
2021/05/13 10:09:16;;;;;;;13.30;10.45;;;;;;;18.74;63.48;98780.41;4934894;28;98087;-87
2021/05/13 10:11:43;;;;;;;16.45;11.32;;;;;;;18.71;63.42;98775.34;4917821;28;97355;-85
2021/05/13 10:14:09;;;;;;;24.95;12.45;;;;;;;18.74;63.95;98781.25;4954104;28;96952;-83
2021/05/13 10:16:35;;;;;;;18.98;11.07;;;;;;;18.72;63.55;98782.31;4953300;28;101204;-85
2021/05/13 10:19:06;;;;;;;12.80;10.63;;;;;;;18.71;63.17;98778.84;4955042;28;98363;-84
2021/05/13 10:21:33;;;;;;;17.90;11.40;;;;;;;18.69;63.22;98762.19;4953990;28;96625;-85
2021/05/13 10:23:59;;;;;;;24.50;11.73;;;;;;;18.74;63.58;98765.28;4955064;28;96984;-85
2021/05/13 10:26:27;;;;;;;19.80;11.15;;;;;;;18.86;63.17;98758.00;4954805;28;100230;-82
2021/05/13 10:28:53;;;;;;;17.00;10.82;;;;;;;18.87;63.28;98761.50;4970200;28;101723;-84
2021/05/13 10:31:37;;;;;;;21.42;12.60;;;;;;;18.90;63.18;98770.00;4936239;28;96962;-88
2021/05/13 10:34:03;;;;;;;14.02;11.40;;;;;;;18.89;63.16;98760.38;4936471;28;97343;-77
2021/05/13 10:36:28;;;;;;;16.83;11.57;;;;;;;18.91;63.12;98768.22;4952934;28;101415;-82
2021/05/13 10:39:05;;;;;;;16.13;11.77;;;;;;;18.98;62.83;98764.81;4952796;28;101517;-83
2021/05/13 10:41:35;;;;;;;19.42;12.68;;;;;;;18.93;62.91;98767.06;4936883;28;96727;-83
2021/05/13 10:44:07;;;;;;;16.85;11.93;;;;;;;18.97;62.49;98764.97;4970461;28;96740;-83
2021/05/13 10:46:33;;;;;;;18.98;13.07;;;;;;;18.94;62.66;98750.16;4953360;28;101460;-82
2021/05/13 10:49:26;;;;;;;15.57;12.18;;;;;;;18.92;62.51;98760.09;4937677;28;101260;-83
2021/05/13 10:51:54;;;;;;;16.55;11.85;;;;;;;19.02;62.63;98761.88;4937695;28;96897;-83
2021/05/13 10:54:32;;;;;;;17.27;12.95;;;;;;;18.87;62.21;98764.97;4951200;28;96764;-83
2021/05/13 10:57:17;;;;;;;16.55;10.98;;;;;;;18.91;62.76;98760.25;4969984;28;98993;-82
2021/05/13 11:00:21;;;;;;;19.50;12.50;;;;;;;19.11;62.16;98755.69;4952458;28;101345;-83
2021/05/13 11:02:49;;;;;;;13.70;11.20;;;;;;;19.11;62.19;98761.00;4937022;28;96811;-83
2021/05/13 11:05:27;;;;;;;14.73;11.82;;;;;;;19.19;61.64;98758.47;4937642;28;96935;-83
2021/05/13 11:07:53;;;;;;;16.35;12.07;;;;;;;19.12;61.85;98760.03;4952827;28;100659;-83
2021/05/13 11:10:19;;;;;;;15.98;12.00;;;;;;;19.30;61.67;98762.78;4937753;28;101335;-83
2021/05/13 11:12:45;;;;;;;18.35;11.93;;;;;;;19.42;61.22;98759.78;4969939;28;97062;-83
2021/05/13 11:15:16;;;;;;;17.52;12.90;;;;;;;19.40;61.14;98753.78;4951970;28;96893;-83
2021/05/13 11:17:52;;;;;;;18.92;11.85;;;;;;;19.53;61.02;98753.44;4952479;28;101142;-82
2021/05/13 11:20:47;;;;;;;18.45;12.43;;;;;;;19.52;60.50;98761.56;4968668;28;101404;-82